Time;durP1;ratioP1;P1;durP2;ratioP2;P2;SDS_P1;SDS_P2;PMS_P1;PMS_P2;Temp;Humidity;BMP_temperature;BMP_pressure;BME280_temperature;BME280_humidity;BME280_pressure;Samples;Min_cycle;Max_cycle;Signal;HPM_P1;HPM_P2
2022/11/08 00:02:23;;;;;;;24.90;11.48;;;;;;;6.48;100.00;99239.69;4484696;31;20493;-75
2022/11/08 00:04:51;;;;;;;27.33;12.23;;;;;;;6.55;100.00;99237.50;4484917;32;20135;-75
2022/11/08 00:15:37;;;;;;;30.58;12.65;;;;;;;6.49;100.00;99235.28;4468855;32;20111;-76
2022/11/08 00:18:06;;;;;;;24.27;10.90;;;;;;;6.42;100.00;99239.22;4468839;32;20107;-76
2022/11/08 00:20:33;;;;;;;26.87;11.85;;;;;;;6.34;100.00;99232.78;4468985;32;20097;-75
2022/11/08 00:23:01;;;;;;;25.48;12.52;;;;;;;6.27;100.00;99235.84;4468726;32;20112;-75
2022/11/08 00:25:28;;;;;;;26.92;10.93;;;;;;;6.20;100.00;99241.44;4469123;32;20101;-76
2022/11/08 00:27:55;;;;;;;28.67;12.20;;;;;;;6.15;100.00;99235.69;4468778;32;20657;-75
2022/11/08 00:30:22;;;;;;;22.00;10.52;;;;;;;6.09;100.00;99241.28;4467369;32;20104;-76
2022/11/08 00:32:49;;;;;;;26.55;11.12;;;;;;;6.07;100.00;99243.16;4468551;32;20118;-76
2022/11/08 00:35:16;;;;;;;25.73;11.52;;;;;;;6.00;100.00;99239.28;4468692;32;20453;-75
2022/11/08 00:37:43;;;;;;;23.77;11.02;;;;;;;5.89;100.00;99233.84;4468234;32;20089;-75
2022/11/08 00:40:11;;;;;;;25.70;12.20;;;;;;;5.82;100.00;99236.84;4468581;32;20093;-75
2022/11/08 00:42:38;;;;;;;28.77;11.27;;;;;;;5.76;100.00;99231.19;4468419;32;20092;-75
2022/11/08 00:45:05;;;;;;;23.08;10.68;;;;;;;5.67;100.00;99236.03;4468834;32;20470;-76
2022/11/08 00:47:32;;;;;;;28.87;10.70;;;;;;;5.62;100.00;99232.06;4467243;32;20072;-75
2022/11/08 00:50:00;;;;;;;26.92;10.38;;;;;;;5.55;100.00;99234.19;4468529;32;20564;-75
2022/11/08 00:52:27;;;;;;;24.75;11.40;;;;;;;5.48;100.00;99233.72;4468372;32;20093;-75
2022/11/08 00:54:54;;;;;;;29.60;11.43;;;;;;;5.41;100.00;99239.41;4468323;32;20527;-75
2022/11/08 00:57:21;;;;;;;24.55;11.05;;;;;;;5.31;100.00;99231.31;4468639;32;20139;-75
2022/11/08 01:00:09;;;;;;;26.10;10.68;;;;;;;5.27;100.00;99238.47;4452827;32;20093;-75
2022/11/08 01:02:36;;;;;;;36.63;11.95;;;;;;;5.17;100.00;99236.50;4453005;32;20405;-75
2022/11/08 01:05:03;;;;;;;34.90;12.18;;;;;;;5.07;100.00;99237.06;4452886;32;20147;-76
2022/11/08 01:07:30;;;;;;;36.58;12.10;;;;;;;4.99;100.00;99234.06;4454882;32;20096;-75
2022/11/08 01:09:57;;;;;;;33.85;12.48;;;;;;;5.02;100.00;99241.66;4468007;32;20096;-75
2022/11/08 01:12:24;;;;;;;32.58;11.70;;;;;;;4.95;100.00;99235.16;4468280;32;20160;-75
2022/11/08 01:14:53;;;;;;;26.02;12.02;;;;;;;4.94;100.00;99230.91;4467959;32;20450;-75
2022/11/08 01:17:20;;;;;;;23.17;10.05;;;;;;;4.89;100.00;99233.78;4468038;32;20150;-75
2022/11/08 01:19:47;;;;;;;24.00;11.00;;;;;;;4.89;100.00;99228.59;4467861;32;20101;-75
2022/11/08 01:22:14;;;;;;;32.75;10.77;;;;;;;4.85;100.00;99226.25;4470313;32;20143;-75
2022/11/08 01:24:41;;;;;;;24.63;11.30;;;;;;;4.80;100.00;99226.53;4470203;32;20156;-75
2022/11/08 01:27:08;;;;;;;25.83;11.25;;;;;;;4.76;100.00;99225.03;4470383;32;20506;-76
2022/11/08 01:29:35;;;;;;;26.40;10.40;;;;;;;4.76;100.00;99220.66;4470093;32;20108;-76
2022/11/08 01:32:02;;;;;;;24.80;10.90;;;;;;;4.76;100.00;99220.66;4470344;32;20080;-76
2022/11/08 01:34:29;;;;;;;25.62;11.02;;;;;;;4.72;100.00;99226.94;4470164;32;20151;-76
2022/11/08 01:36:56;;;;;;;25.17;10.60;;;;;;;4.72;100.00;99221.75;4470010;32;20162;-75
2022/11/08 01:39:23;;;;;;;21.73;10.35;;;;;;;4.70;100.00;99218.41;4470011;32;20088;-76
2022/11/08 01:41:51;;;;;;;23.83;10.48;;;;;;;4.66;100.00;99227.28;4470314;32;20135;-75
2022/11/08 01:44:19;;;;;;;24.20;9.93;;;;;;;4.58;100.00;99225.16;4470008;32;20183;-75
2022/11/08 01:46:46;;;;;;;24.83;9.38;;;;;;;4.53;100.00;99215.97;4470411;32;20093;-75
2022/11/08 01:49:19;;;;;;;22.42;9.63;;;;;;;4.51;100.00;99216.06;4470142;32;20104;-75
2022/11/08 01:52:15;;;;;;;24.20;10.73;;;;;;;4.47;100.00;99217.16;4470500;32;20076;-75
2022/11/08 01:55:16;;;;;;;22.62;9.43;;;;;;;4.47;100.00;99224.09;4421146;32;20097;-75
2022/11/08 01:57:54;;;;;;;19.90;9.00;;;;;;;4.46;100.00;99220.66;4359674;32;20155;-76
2022/11/08 02:00:21;;;;;;;21.00;9.40;;;;;;;4.40;100.00;99219.25;4346130;33;20096;-75
2022/11/08 02:02:54;;;;;;;26.35;9.68;;;;;;;4.35;100.00;99220.44;4345919;33;20150;-75
2022/11/08 02:05:23;;;;;;;20.17;9.60;;;;;;;4.34;100.00;99209.22;4346014;33;20222;-75
2022/11/08 02:07:58;;;;;;;22.62;10.70;;;;;;;4.37;100.00;99203.84;4350303;32;20445;-75
2022/11/08 02:10:29;;;;;;;20.52;10.13;;;;;;;4.39;100.00;99203.75;4360622;32;20126;-75
2022/11/08 02:12:56;;;;;;;20.02;10.25;;;;;;;4.40;100.00;99201.09;4360454;32;20119;-75
2022/11/08 02:15:25;;;;;;;27.17;10.68;;;;;;;4.41;100.00;99200.16;4360460;32;20087;-76
2022/11/08 02:17:53;;;;;;;21.70;10.55;;;;;;;4.40;100.00;99201.09;4360756;32;20115;-75
2022/11/08 02:20:20;;;;;;;25.67;10.30;;;;;;;4.39;100.00;99201.16;4360556;32;20242;-76
2022/11/08 02:22:57;;;;;;;20.77;9.95;;;;;;;4.36;100.00;99198.75;4360653;32;20649;-75
2022/11/08 02:25:25;;;;;;;20.90;9.85;;;;;;;4.33;100.00;99197.19;4360588;32;20618;-76
2022/11/08 02:27:52;;;;;;;23.17;10.13;;;;;;;4.26;100.00;99207.06;4360786;32;20176;-75
2022/11/08 02:30:19;;;;;;;22.37;9.65;;;;;;;4.23;100.00;99203.81;4366994;32;20114;-75
2022/11/08 02:32:47;;;;;;;18.55;8.52;;;;;;;4.15;100.00;99201.66;4404807;32;20185;-75
2022/11/08 02:35:16;;;;;;;21.50;9.40;;;;;;;4.13;100.00;99210.44;4452110;32;20085;-75
2022/11/08 02:37:44;;;;;;;19.00;9.63;;;;;;;4.08;100.00;99203.72;4468290;32;20096;-74
2022/11/08 02:40:11;;;;;;;17.83;8.60;;;;;;;4.04;100.00;99204.84;4469720;32;20092;-75
2022/11/08 02:42:38;;;;;;;21.58;9.20;;;;;;;3.98;100.00;99210.38;4469786;32;20114;-75
2022/11/08 02:45:06;;;;;;;23.60;9.43;;;;;;;3.97;100.00;99206.09;4469609;32;20118;-75
2022/11/08 02:47:33;;;;;;;18.90;9.00;;;;;;;3.97;100.00;99213.88;4470146;32;20551;-75
2022/11/08 02:50:00;;;;;;;20.80;9.40;;;;;;;3.99;100.00;99208.59;4469629;32;20097;-75
2022/11/08 02:52:27;;;;;;;23.42;9.77;;;;;;;3.95;100.00;99209.69;4469698;32;20128;-76
2022/11/08 02:54:55;;;;;;;20.00;9.75;;;;;;;3.93;100.00;99208.94;4469509;32;20160;-75
2022/11/08 02:57:22;;;;;;;23.30;9.52;;;;;;;3.92;100.00;99208.09;4469830;32;20092;-75
2022/11/08 02:59:49;;;;;;;26.50;11.32;;;;;;;3.90;100.00;99209.94;4484373;32;20160;-75
2022/11/08 03:02:18;;;;;;;23.70;10.65;;;;;;;3.88;100.00;99207.44;4485422;31;20476;-75
2022/11/08 03:04:45;;;;;;;21.33;9.63;;;;;;;3.87;100.00;99212.69;4485224;31;20379;-75
2022/11/08 03:07:12;;;;;;;28.33;11.63;;;;;;;3.85;100.00;99210.19;4484851;31;20121;-75
2022/11/08 03:09:39;;;;;;;28.85;13.30;;;;;;;3.87;100.00;99204.91;4469447;32;20427;-75
2022/11/08 03:12:06;;;;;;;26.92;12.52;;;;;;;3.88;100.00;99211.78;4469514;32;20638;-76
2022/11/08 03:14:33;;;;;;;29.25;12.63;;;;;;;3.84;100.00;99218.06;4469342;32;20123;-75
2022/11/08 03:17:01;;;;;;;33.67;13.75;;;;;;;3.81;100.00;99218.22;4469600;32;20097;-75
2022/11/08 03:19:28;;;;;;;31.87;13.90;;;;;;;3.81;100.00;99215.63;4469576;32;20124;-75
2022/11/08 03:21:55;;;;;;;35.97;14.30;;;;;;;3.78;100.00;99216.63;4469331;32;20134;-76
2022/11/08 03:24:22;;;;;;;28.23;12.68;;;;;;;3.75;100.00;99219.38;4469419;32;20176;-75
2022/11/08 03:26:49;;;;;;;28.95;12.27;;;;;;;3.82;100.00;99212.94;4468121;32;20089;-75
2022/11/08 03:29:16;;;;;;;26.55;10.98;;;;;;;3.89;100.00;99213.44;4469486;32;20578;-75
2022/11/08 03:31:43;;;;;;;23.20;9.68;;;;;;;3.79;100.00;99212.28;4469527;32;20089;-75
2022/11/08 03:34:10;;;;;;;32.15;12.05;;;;;;;3.71;100.00;99215.31;4469241;32;20148;-75
2022/11/08 03:36:37;;;;;;;23.77;10.82;;;;;;;3.67;100.00;99214.59;4469085;32;20092;-74
2022/11/08 03:39:05;;;;;;;20.35;9.65;;;;;;;3.62;100.00;99216.63;4469443;32;20112;-75
2022/11/08 03:41:32;;;;;;;21.80;9.65;;;;;;;3.59;100.00;99211.59;4469264;32;20157;-75
2022/11/08 03:43:59;;;;;;;24.75;9.93;;;;;;;3.54;100.00;99218.78;4468623;32;20144;-75
2022/11/08 03:46:26;;;;;;;23.87;10.10;;;;;;;3.55;100.00;99220.44;4469121;32;20151;-75
2022/11/08 03:48:53;;;;;;;27.17;10.73;;;;;;;3.54;100.00;99222.22;4469341;32;20162;-75
2022/11/08 03:51:20;;;;;;;22.23;9.85;;;;;;;3.54;100.00;99219.62;4469160;32;20530;-75
2022/11/08 03:53:47;;;;;;;22.00;9.38;;;;;;;3.51;100.00;99218.94;4469220;32;20164;-75
2022/11/08 03:56:14;;;;;;;19.02;8.95;;;;;;;3.43;100.00;99221.09;4469082;32;20114;-75
2022/11/08 03:58:41;;;;;;;20.77;9.32;;;;;;;3.31;100.00;99223.41;4476674;32;20109;-75
2022/11/08 04:01:08;;;;;;;20.30;10.60;;;;;;;3.23;100.00;99222.97;4484768;31;20164;-75
2022/11/08 04:03:36;;;;;;;24.20;10.38;;;;;;;3.27;100.00;99226.22;4485226;31;20145;-75
2022/11/08 04:06:03;;;;;;;22.30;9.90;;;;;;;3.28;100.00;99225.31;4484547;32;20544;-75
2022/11/08 04:08:30;;;;;;;21.90;9.95;;;;;;;3.28;100.00;99220.97;4475746;31;20172;-75
2022/11/08 04:15:13;;;;;;;24.35;10.10;;;;;;;3.32;100.00;99224.25;4468937;32;20167;-75
2022/11/08 04:16:34;;;;;;;81.18;11.07;;;;;;;3.60;100.00;99223.63;4468771;32;20141;-75
2022/11/08 04:21:48;;;;;;;29.02;10.18;;;;;;;3.79;100.00;99213.12;4468815;32;20562;-75
2022/11/08 04:24:15;;;;;;;65.60;10.40;;;;;;;3.83;100.00;99213.78;4469072;32;20157;-75
2022/11/08 04:26:42;;;;;;;75.65;10.68;;;;;;;3.83;100.00;99217.22;4468556;32;20442;-75
2022/11/08 04:29:09;;;;;;;95.03;10.75;;;;;;;3.85;100.00;99219.72;4468834;32;20173;-75
2022/11/08 04:31:36;;;;;;;61.58;9.93;;;;;;;3.81;100.00;99213.03;4468687;32;20155;-75
2022/11/08 04:34:04;;;;;;;79.90;11.00;;;;;;;3.81;100.00;99210.44;4468685;32;20556;-75
2022/11/08 04:36:32;;;;;;;67.53;10.57;;;;;;;3.79;100.00;99207.13;4468339;32;20080;-75
2022/11/08 04:38:59;;;;;;;110.37;13.23;;;;;;;3.84;100.00;99210.28;4453014;32;20105;-75
2022/11/08 04:41:26;;;;;;;16.55;7.70;;;;;;;3.85;100.00;99206.78;4452875;32;20115;-75
2022/11/08 04:43:55;;;;;;;71.85;8.43;;;;;;;3.94;100.00;99206.28;4452927;32;20097;-75
2022/11/08 04:46:26;;;;;;;120.40;9.57;;;;;;;4.01;100.00;99201.56;4452820;32;20130;-75
2022/11/08 04:48:56;;;;;;;136.73;12.40;;;;;;;4.05;100.00;99203.91;4453059;32;20109;-75
2022/11/08 04:51:28;;;;;;;89.40;9.75;;;;;;;4.08;100.00;99201.13;4452845;32;20484;-75
2022/11/08 04:53:58;;;;;;;124.55;10.40;;;;;;;4.13;100.00;99205.25;4453028;32;20399;-75
2022/11/08 04:56:26;;;;;;;104.28;10.52;;;;;;;4.12;100.00;99198.38;4453983;32;20092;-75
2022/11/08 04:58:56;;;;;;;117.37;10.60;;;;;;;4.13;100.00;99189.69;4446155;32;20123;-75
2022/11/08 05:01:28;;;;;;;193.50;14.70;;;;;;;4.14;100.00;99196.56;4439450;32;20692;-75
2022/11/08 05:03:56;;;;;;;209.25;20.42;;;;;;;4.14;100.00;99186.19;4439407;32;20490;-75
2022/11/08 05:06:30;;;;;;;33.33;7.18;;;;;;;4.15;100.00;99187.84;4438876;32;20659;-75
2022/11/08 05:08:58;;;;;;;86.75;10.02;;;;;;;4.16;100.00;99195.53;4450677;32;20152;-75
2022/11/08 05:11:28;;;;;;;70.07;9.82;;;;;;;4.20;100.00;99196.22;4454911;32;20161;-75
2022/11/08 05:13:55;;;;;;;83.15;9.75;;;;;;;4.19;100.00;99192.75;4453267;32;20195;-75
2022/11/08 05:16:25;;;;;;;124.78;11.30;;;;;;;4.18;100.00;99198.03;4454627;32;20096;-75
2022/11/08 05:18:53;;;;;;;52.65;8.38;;;;;;;4.14;100.00;99201.75;4454799;32;20093;-75
2022/11/08 05:24:10;;;;;;;25.65;7.25;;;;;;;4.11;100.00;99202.75;4454644;32;20076;-75
2022/11/08 05:26:41;;;;;;;37.00;7.68;;;;;;;4.07;100.00;99207.28;4454505;32;20122;-75
2022/11/08 05:29:08;;;;;;;32.53;7.78;;;;;;;4.07;100.00;99209.84;4453922;32;20455;-75
2022/11/08 05:31:35;;;;;;;46.33;7.30;;;;;;;4.06;100.00;99208.19;4454491;32;20154;-75
2022/11/08 05:34:03;;;;;;;77.65;8.98;;;;;;;4.09;100.00;99213.19;4454587;32;20121;-75
2022/11/08 05:36:30;;;;;;;118.65;11.30;;;;;;;4.13;100.00;99219.03;4454611;32;20162;-75
2022/11/08 05:38:58;;;;;;;24.67;7.22;;;;;;;4.14;100.00;99219.88;4438607;32;20120;-75
2022/11/08 05:41:25;;;;;;;61.50;7.87;;;;;;;4.15;100.00;99224.13;4439169;32;20127;-75
2022/11/08 05:43:54;;;;;;;120.47;9.60;;;;;;;4.16;100.00;99218.84;4438513;32;20761;-75
2022/11/08 05:46:22;;;;;;;79.53;7.37;;;;;;;4.18;100.00;99223.97;4439091;32;20565;-75
2022/11/08 05:48:49;;;;;;;62.08;8.10;;;;;;;4.21;100.00;99228.97;4438721;32;20157;-75
2022/11/08 05:51:18;;;;;;;66.32;7.82;;;;;;;4.16;100.00;99216.25;4438631;32;20451;-75
2022/11/08 05:53:48;;;;;;;72.47;6.85;;;;;;;4.15;100.00;99229.31;4438749;32;20097;-75
2022/11/08 05:56:16;;;;;;;63.95;9.10;;;;;;;4.14;100.00;99227.66;4438955;32;20207;-74
2022/11/08 05:58:43;;;;;;;77.70;11.70;;;;;;;4.21;100.00;99228.97;4446397;32;20825;-74
2022/11/08 06:01:13;;;;;;;43.75;8.38;;;;;;;4.24;100.00;99227.06;4446059;32;20162;-72
2022/11/08 06:03:41;;;;;;;84.25;8.88;;;;;;;4.29;100.00;99216.44;4435327;32;20110;-74
2022/11/08 06:06:19;;;;;;;137.35;8.05;;;;;;;4.34;100.00;99217.00;4438344;32;20105;-74
2022/11/08 06:08:47;;;;;;;102.62;9.18;;;;;;;4.38;100.00;99215.91;4438866;32;20102;-74
2022/11/08 06:11:20;;;;;;;78.43;7.90;;;;;;;4.45;100.00;99226.75;4434257;32;20109;-74
2022/11/08 06:13:48;;;;;;;106.05;10.30;;;;;;;4.49;100.00;99227.44;4428616;32;20168;-74
2022/11/08 06:16:17;;;;;;;49.72;6.47;;;;;;;4.54;100.00;99228.00;4432093;32;20139;-74
2022/11/08 06:18:44;;;;;;;81.60;9.38;;;;;;;4.60;100.00;99230.25;4433377;32;20123;-74
2022/11/08 06:21:14;;;;;;;120.37;12.07;;;;;;;4.57;100.00;99235.62;4433204;32;20101;-74
2022/11/08 06:23:41;;;;;;;88.87;8.43;;;;;;;4.46;100.00;99225.03;4431145;32;20116;-74
